sensor_id;sensor_type;location;lat;lon;timestamp;pressure;altitude;pressure_sealevel;temperature;humidity
78383;BME280;67668;52.294;4.692;2023-08-08T00:01:49;101500.34;;;17.37;72.80
78383;BME280;67668;52.294;4.692;2023-08-08T00:04:14;101498.69;;;17.36;72.65
78383;BME280;67668;52.294;4.692;2023-08-08T00:06:41;101497.00;;;17.35;72.91
78383;BME280;67668;52.294;4.692;2023-08-08T00:09:06;101493.69;;;17.33;72.89
78383;BME280;67668;52.294;4.692;2023-08-08T00:11:32;101496.69;;;17.30;72.95
78383;BME280;67668;52.294;4.692;2023-08-08T00:13:58;101497.50;;;17.30;73.21
78383;BME280;67668;52.294;4.692;2023-08-08T00:16:23;101485.31;;;17.28;73.24
78383;BME280;67668;52.294;4.692;2023-08-08T00:18:49;101480.97;;;17.27;73.17
78383;BME280;67668;52.294;4.692;2023-08-08T00:21:16;101475.78;;;17.25;73.14
78383;BME280;67668;52.294;4.692;2023-08-08T00:23:41;101485.66;;;17.25;73.41
78383;BME280;67668;52.294;4.692;2023-08-08T00:26:07;101482.31;;;17.23;73.59
78383;BME280;67668;52.294;4.692;2023-08-08T00:28:32;101484.16;;;17.22;73.69
78383;BME280;67668;52.294;4.692;2023-08-08T00:30:58;101479.81;;;17.21;73.76
78383;BME280;67668;52.294;4.692;2023-08-08T00:33:23;101485.16;;;17.21;73.67
78383;BME280;67668;52.294;4.692;2023-08-08T00:35:49;101477.31;;;17.20;73.62
78383;BME280;67668;52.294;4.692;2023-08-08T00:38:14;101478.31;;;17.19;73.79
78383;BME280;67668;52.294;4.692;2023-08-08T00:40:41;101475.78;;;17.17;73.38
78383;BME280;67668;52.294;4.692;2023-08-08T00:43:07;101473.31;;;17.16;72.75
78383;BME280;67668;52.294;4.692;2023-08-08T00:45:32;101471.81;;;17.13;72.15
78383;BME280;67668;52.294;4.692;2023-08-08T00:47:58;101469.28;;;17.12;73.09
78383;BME280;67668;52.294;4.692;2023-08-08T00:50:23;101474.63;;;17.12;71.94
78383;BME280;67668;52.294;4.692;2023-08-08T00:52:49;101479.34;;;17.10;71.18
78383;BME280;67668;52.294;4.692;2023-08-08T00:55:15;101477.66;;;17.09;71.81
78383;BME280;67668;52.294;4.692;2023-08-08T00:57:41;101476.31;;;17.04;71.40
78383;BME280;67668;52.294;4.692;2023-08-08T01:00:07;101477.31;;;17.03;71.53
78383;BME280;67668;52.294;4.692;2023-08-08T01:02:35;101478.47;;;17.01;71.34
78383;BME280;67668;52.294;4.692;2023-08-08T01:05:02;101474.97;;;17.00;72.21
78383;BME280;67668;52.294;4.692;2023-08-08T01:10:22;101461.78;;;16.99;71.34
78383;BME280;67668;52.294;4.692;2023-08-08T01:12:53;101470.66;;;16.99;71.73
78383;BME280;67668;52.294;4.692;2023-08-08T01:15:21;101472.63;;;16.97;71.27
78383;BME280;67668;52.294;4.692;2023-08-08T01:17:47;101470.97;;;16.96;70.55
78383;BME280;67668;52.294;4.692;2023-08-08T01:20:14;101471.31;;;16.93;69.95
78383;BME280;67668;52.294;4.692;2023-08-08T01:25:56;101472.47;;;16.91;70.63
78383;BME280;67668;52.294;4.692;2023-08-08T01:28:24;101469.97;;;16.89;71.29
78383;BME280;67668;52.294;4.692;2023-08-08T01:30:50;101462.09;;;16.88;70.36
78383;BME280;67668;52.294;4.692;2023-08-08T01:33:16;101463.78;;;16.89;70.44
78383;BME280;67668;52.294;4.692;2023-08-08T01:35:46;101463.94;;;16.87;69.91
78383;BME280;67668;52.294;4.692;2023-08-08T01:38:20;101460.63;;;16.85;69.88
78383;BME280;67668;52.294;4.692;2023-08-08T01:40:47;101458.94;;;16.84;69.77
78383;BME280;67668;52.294;4.692;2023-08-08T01:43:14;101453.09;;;16.81;68.30
78383;BME280;67668;52.294;4.692;2023-08-08T01:45:41;101453.25;;;16.79;67.82
78383;BME280;67668;52.294;4.692;2023-08-08T01:48:10;101450.75;;;16.78;68.54
78383;BME280;67668;52.294;4.692;2023-08-08T01:50:37;101448.91;;;16.78;69.61
78383;BME280;67668;52.294;4.692;2023-08-08T01:53:03;101450.75;;;16.78;69.28
78383;BME280;67668;52.294;4.692;2023-08-08T01:55:29;101441.88;;;16.77;69.46
78383;BME280;67668;52.294;4.692;2023-08-08T01:57:55;101441.88;;;16.77;70.40
78383;BME280;67668;52.294;4.692;2023-08-08T02:00:20;101434.88;;;16.76;68.78
78383;BME280;67668;52.294;4.692;2023-08-08T02:02:46;101443.75;;;16.77;69.82
78383;BME280;67668;52.294;4.692;2023-08-08T02:05:11;101442.06;;;16.76;70.05
78383;BME280;67668;52.294;4.692;2023-08-08T02:07:36;101434.19;;;16.74;69.44
78383;BME280;67668;52.294;4.692;2023-08-08T02:10:02;101434.72;;;16.70;67.23
78383;BME280;67668;52.294;4.692;2023-08-08T02:12:28;101444.56;;;16.69;67.45
78383;BME280;67668;52.294;4.692;2023-08-08T02:14:58;101445.56;;;16.68;68.43
78383;BME280;67668;52.294;4.692;2023-08-08T02:17:25;101433.19;;;16.67;68.79
78383;BME280;67668;52.294;4.692;2023-08-08T02:19:51;101427.84;;;16.67;67.67
78383;BME280;67668;52.294;4.692;2023-08-08T02:22:17;101434.22;;;16.66;68.74
78383;BME280;67668;52.294;4.692;2023-08-08T02:24:42;101439.72;;;16.65;67.56
78383;BME280;67668;52.294;4.692;2023-08-08T02:27:08;101431.69;;;16.65;68.76
78383;BME280;67668;52.294;4.692;2023-08-08T02:29:33;101436.38;;;16.63;67.84
78383;BME280;67668;52.294;4.692;2023-08-08T02:31:59;101439.22;;;16.61;67.78
78383;BME280;67668;52.294;4.692;2023-08-08T02:34:24;101425.19;;;16.59;68.47
78383;BME280;67668;52.294;4.692;2023-08-08T02:36:50;101435.88;;;16.59;68.67
78383;BME280;67668;52.294;4.692;2023-08-08T02:39:15;101439.41;;;16.60;68.39
78383;BME280;67668;52.294;4.692;2023-08-08T02:41:41;101430.69;;;16.58;68.91
78383;BME280;67668;52.294;4.692;2023-08-08T02:44:07;101431.53;;;16.58;68.91
78383;BME280;67668;52.294;4.692;2023-08-08T02:46:33;101432.56;;;16.57;67.76
78383;BME280;67668;52.294;4.692;2023-08-08T02:48:58;101430.03;;;16.56;67.64
78383;BME280;67668;52.294;4.692;2023-08-08T02:51:25;101430.16;;;16.54;67.83
78383;BME280;67668;52.294;4.692;2023-08-08T02:53:50;101431.16;;;16.53;68.19
78383;BME280;67668;52.294;4.692;2023-08-08T02:56:16;101431.16;;;16.53;68.25
78383;BME280;67668;52.294;4.692;2023-08-08T02:58:41;101420.47;;;16.53;69.01
78383;BME280;67668;52.294;4.692;2023-08-08T03:01:06;101415.28;;;16.51;68.41
78383;BME280;67668;52.294;4.692;2023-08-08T03:03:32;101406.44;;;16.51;68.93
78383;BME280;67668;52.294;4.692;2023-08-08T03:05:57;101416.28;;;16.50;68.65
78383;BME280;67668;52.294;4.692;2023-08-08T03:08:22;101406.63;;;16.49;68.00
78383;BME280;67668;52.294;4.692;2023-08-08T03:10:49;101410.28;;;16.48;67.54
78383;BME280;67668;52.294;4.692;2023-08-08T03:13:14;101401.44;;;16.48;69.29
78383;BME280;67668;52.294;4.692;2023-08-08T03:15:40;101409.63;;;16.46;68.22
78383;BME280;67668;52.294;4.692;2023-08-08T03:18:05;101409.63;;;16.46;68.64
78383;BME280;67668;52.294;4.692;2023-08-08T03:20:31;101409.63;;;16.46;69.08
78383;BME280;67668;52.294;4.692;2023-08-08T03:22:56;101410.75;;;16.44;68.75
78383;BME280;67668;52.294;4.692;2023-08-08T03:25:22;101405.41;;;16.44;67.96
78383;BME280;67668;52.294;4.692;2023-08-08T03:27:48;101405.75;;;16.41;67.58
78383;BME280;67668;52.294;4.692;2023-08-08T03:30:13;101400.41;;;16.41;67.97
78383;BME280;67668;52.294;4.692;2023-08-08T03:32:39;101393.41;;;16.40;69.30
78383;BME280;67668;52.294;4.692;2023-08-08T03:35:04;101396.09;;;16.40;69.45
78383;BME280;67668;52.294;4.692;2023-08-08T03:37:31;101397.09;;;16.39;69.47
78383;BME280;67668;52.294;4.692;2023-08-08T03:39:56;101400.94;;;16.36;69.56
78383;BME280;67668;52.294;4.692;2023-08-08T03:42:22;101400.09;;;16.36;69.93
78383;BME280;67668;52.294;4.692;2023-08-08T03:44:47;101398.41;;;16.35;69.75
78383;BME280;67668;52.294;4.692;2023-08-08T03:47:13;101390.41;;;16.35;70.02
78383;BME280;67668;52.294;4.692;2023-08-08T03:49:38;101394.09;;;16.34;69.98
78383;BME280;67668;52.294;4.692;2023-08-08T03:52:04;101386.06;;;16.34;70.08
78383;BME280;67668;52.294;4.692;2023-08-08T03:54:29;101389.22;;;16.29;67.86
78383;BME280;67668;52.294;4.692;2023-08-08T03:56:54;101379.53;;;16.28;69.22
78383;BME280;67668;52.294;4.692;2023-08-08T03:59:20;101383.19;;;16.27;69.79
78383;BME280;67668;52.294;4.692;2023-08-08T04:01:45;101384.22;;;16.26;68.29
78383;BME280;67668;52.294;4.692;2023-08-08T04:04:11;101378.53;;;16.21;69.38
78383;BME280;67668;52.294;4.692;2023-08-08T04:06:36;101383.53;;;16.24;69.22
78383;BME280;67668;52.294;4.692;2023-08-08T04:09:02;101389.06;;;16.23;69.80
78383;BME280;67668;52.294;4.692;2023-08-08T04:11:27;101381.19;;;16.21;70.16
78383;BME280;67668;52.294;4.692;2023-08-08T04:13:53;101384.19;;;16.18;68.00
78383;BME280;67668;52.294;4.692;2023-08-08T04:16:18;101387.88;;;16.17;68.43
78383;BME280;67668;52.294;4.692;2023-08-08T04:18:44;101383.69;;;16.15;68.72
78383;BME280;67668;52.294;4.692;2023-08-08T04:21:09;101381.00;;;16.15;69.68
78383;BME280;67668;52.294;4.692;2023-08-08T04:23:35;101383.69;;;16.15;70.14
78383;BME280;67668;52.294;4.692;2023-08-08T04:26:01;101370.53;;;16.13;70.04
78383;BME280;67668;52.294;4.692;2023-08-08T04:28:27;101373.53;;;16.10;68.64
78383;BME280;67668;52.294;4.692;2023-08-08T04:30:52;101378.16;;;16.08;68.30
78383;BME280;67668;52.294;4.692;2023-08-08T04:33:18;101381.88;;;16.07;69.13
78383;BME280;67668;52.294;4.692;2023-08-08T04:35:43;101385.53;;;16.06;68.26
78383;BME280;67668;52.294;4.692;2023-08-08T04:38:09;101383.69;;;16.07;69.61
78383;BME280;67668;52.294;4.692;2023-08-08T04:40:34;101381.03;;;16.07;70.38
78383;BME280;67668;52.294;4.692;2023-08-08T04:43:01;101387.34;;;16.06;69.47
78383;BME280;67668;52.294;4.692;2023-08-08T04:45:27;101386.69;;;16.03;68.60
78383;BME280;67668;52.294;4.692;2023-08-08T04:47:54;101388.66;;;16.01;68.14
78383;BME280;67668;52.294;4.692;2023-08-08T04:50:20;101394.84;;;16.02;68.91
78383;BME280;67668;52.294;4.692;2023-08-08T04:52:45;101392.34;;;16.00;68.62
78383;BME280;67668;52.294;4.692;2023-08-08T04:55:11;101390.50;;;16.01;68.86
78383;BME280;67668;52.294;4.692;2023-08-08T04:57:36;101397.69;;;16.00;68.69
78383;BME280;67668;52.294;4.692;2023-08-08T05:00:02;101392.50;;;15.99;68.94
78383;BME280;67668;52.294;4.692;2023-08-08T05:02:30;101388.16;;;15.98;67.81
78383;BME280;67668;52.294;4.692;2023-08-08T05:04:56;101386.50;;;15.97;67.65
78383;BME280;67668;52.294;4.692;2023-08-08T05:07:21;101394.66;;;15.95;68.10
78383;BME280;67668;52.294;4.692;2023-08-08T05:09:46;101384.84;;;15.96;68.50
78383;BME280;67668;52.294;4.692;2023-08-08T05:12:12;101388.34;;;15.96;68.61
78383;BME280;67668;52.294;4.692;2023-08-08T05:14:38;101388.34;;;15.96;69.81
78383;BME280;67668;52.294;4.692;2023-08-08T05:17:04;101386.34;;;15.98;69.95
78383;BME280;67668;52.294;4.692;2023-08-08T05:19:30;101381.97;;;15.97;69.00
78383;BME280;67668;52.294;4.692;2023-08-08T05:21:56;101384.66;;;15.97;69.42
78383;BME280;67668;52.294;4.692;2023-08-08T05:24:21;101389.00;;;15.98;69.86
78383;BME280;67668;52.294;4.692;2023-08-08T05:26:47;101396.03;;;15.99;70.38
78383;BME280;67668;52.294;4.692;2023-08-08T05:29:13;101384.50;;;15.99;69.80
78383;BME280;67668;52.294;4.692;2023-08-08T05:31:38;101396.34;;;15.96;69.50
78383;BME280;67668;52.294;4.692;2023-08-08T05:34:04;101394.34;;;15.98;69.63
78383;BME280;67668;52.294;4.692;2023-08-08T05:36:29;101384.66;;;15.97;69.54
78383;BME280;67668;52.294;4.692;2023-08-08T05:38:54;101380.34;;;15.96;69.77
78383;BME280;67668;52.294;4.692;2023-08-08T05:41:20;101387.31;;;15.97;68.76
78383;BME280;67668;52.294;4.692;2023-08-08T05:43:45;101390.16;;;15.96;68.17
78383;BME280;67668;52.294;4.692;2023-08-08T05:46:11;101398.00;;;15.97;68.25
78383;BME280;67668;52.294;4.692;2023-08-08T05:48:36;101398.69;;;15.99;68.95
78383;BME280;67668;52.294;4.692;2023-08-08T05:51:01;101400.38;;;16.00;68.85
78383;BME280;67668;52.294;4.692;2023-08-08T05:53:30;101396.69;;;16.01;69.23
78383;BME280;67668;52.294;4.692;2023-08-08T05:55:56;101391.19;;;16.03;67.51
78383;BME280;67668;52.294;4.692;2023-08-08T05:58:21;101398.03;;;16.06;68.48
78383;BME280;67668;52.294;4.692;2023-08-08T06:00:47;101405.06;;;16.07;67.75
78383;BME280;67668;52.294;4.692;2023-08-08T06:03:12;101397.88;;;16.07;67.38
78383;BME280;67668;52.294;4.692;2023-08-08T06:05:39;101403.56;;;16.12;67.82
78383;BME280;67668;52.294;4.692;2023-08-08T06:08:05;101410.41;;;16.15;68.23
78383;BME280;67668;52.294;4.692;2023-08-08T06:10:32;101400.41;;;16.17;67.84
78383;BME280;67668;52.294;4.692;2023-08-08T06:12:58;101400.91;;;16.20;67.82
78383;BME280;67668;52.294;4.692;2023-08-08T06:15:24;101405.75;;;16.25;68.76
78383;BME280;67668;52.294;4.692;2023-08-08T06:17:49;101414.94;;;16.30;67.87
78383;BME280;67668;52.294;4.692;2023-08-08T06:20:15;101400.25;;;16.34;67.63
78383;BME280;67668;52.294;4.692;2023-08-08T06:22:41;101407.44;;;16.42;67.87
78383;BME280;67668;52.294;4.692;2023-08-08T06:25:07;101405.78;;;16.49;68.66
78383;BME280;67668;52.294;4.692;2023-08-08T06:27:32;101405.81;;;16.57;68.18
78383;BME280;67668;52.294;4.692;2023-08-08T06:29:58;101405.66;;;16.67;68.83
78383;BME280;67668;52.294;4.692;2023-08-08T06:32:24;101408.81;;;16.78;68.01
78383;BME280;67668;52.294;4.692;2023-08-08T06:34:49;101406.47;;;16.91;68.23
78383;BME280;67668;52.294;4.692;2023-08-08T06:37:15;101399.28;;;17.00;68.03
78383;BME280;67668;52.294;4.692;2023-08-08T06:39:40;101404.59;;;17.08;67.67
78383;BME280;67668;52.294;4.692;2023-08-08T06:42:07;101402.75;;;17.17;68.20
78383;BME280;67668;52.294;4.692;2023-08-08T06:44:33;101404.41;;;17.26;67.74
78383;BME280;67668;52.294;4.692;2023-08-08T06:46:59;101408.56;;;17.36;67.43
78383;BME280;67668;52.294;4.692;2023-08-08T06:49:24;101410.84;;;17.47;66.97
78383;BME280;67668;52.294;4.692;2023-08-08T06:51:49;101401.63;;;17.58;67.10
78383;BME280;67668;52.294;4.692;2023-08-08T06:54:15;101398.59;;;17.69;65.87
78383;BME280;67668;52.294;4.692;2023-08-08T06:56:40;101398.19;;;17.80;66.03
78383;BME280;67668;52.294;4.692;2023-08-08T06:59:06;101403.50;;;17.88;66.80
78383;BME280;67668;52.294;4.692;2023-08-08T07:01:31;101401.94;;;18.02;66.15
78383;BME280;67668;52.294;4.692;2023-08-08T07:03:57;101399.66;;;18.14;64.58
78383;BME280;67668;52.294;4.692;2023-08-08T07:06:22;101405.47;;;18.25;65.02
78383;BME280;67668;52.294;4.692;2023-08-08T07:08:48;101405.53;;;18.40;64.01
78383;BME280;67668;52.294;4.692;2023-08-08T07:11:13;101410.50;;;18.51;63.99
78383;BME280;67668;52.294;4.692;2023-08-08T07:13:39;101407.41;;;18.62;64.21
78383;BME280;67668;52.294;4.692;2023-08-08T07:16:04;101408.81;;;18.73;64.23
78383;BME280;67668;52.294;4.692;2023-08-08T07:18:31;101407.75;;;18.82;62.95
78383;BME280;67668;52.294;4.692;2023-08-08T07:20:56;101403.31;;;18.89;63.27
78383;BME280;67668;52.294;4.692;2023-08-08T07:23:23;101410.44;;;18.96;63.01
78383;BME280;67668;52.294;4.692;2023-08-08T07:25:48;101402.50;;;19.03;61.64
78383;BME280;67668;52.294;4.692;2023-08-08T07:28:14;101401.94;;;19.07;59.96
78383;BME280;67668;52.294;4.692;2023-08-08T07:30:42;101394.47;;;19.18;61.42
78383;BME280;67668;52.294;4.692;2023-08-08T07:33:08;101402.88;;;19.29;61.16
78383;BME280;67668;52.294;4.692;2023-08-08T07:35:35;101395.75;;;19.36;59.95
78383;BME280;67668;52.294;4.692;2023-08-08T07:38:01;101394.03;;;19.43;60.97
78383;BME280;67668;52.294;4.692;2023-08-08T07:40:27;101395.13;;;19.49;60.64
78383;BME280;67668;52.294;4.692;2023-08-08T07:42:53;101391.34;;;19.58;60.22
78383;BME280;67668;52.294;4.692;2023-08-08T07:45:18;101398.09;;;19.69;61.38
78383;BME280;67668;52.294;4.692;2023-08-08T07:47:44;101386.22;;;19.78;60.65
78383;BME280;67668;52.294;4.692;2023-08-08T07:50:10;101400.13;;;19.81;59.40
78383;BME280;67668;52.294;4.692;2023-08-08T07:52:36;101395.66;;;19.88;59.79
78383;BME280;67668;52.294;4.692;2023-08-08T07:55:02;101386.63;;;19.96;60.57
78383;BME280;67668;52.294;4.692;2023-08-08T07:57:28;101385.50;;;20.05;58.38
78383;BME280;67668;52.294;4.692;2023-08-08T07:59:55;101389.06;;;20.12;57.73
78383;BME280;67668;52.294;4.692;2023-08-08T08:02:21;101391.03;;;20.18;56.32
78383;BME280;67668;52.294;4.692;2023-08-08T08:04:46;101385.72;;;20.25;56.94
78383;BME280;67668;52.294;4.692;2023-08-08T08:07:12;101394.34;;;20.35;57.73
78383;BME280;67668;52.294;4.692;2023-08-08T08:09:39;101394.19;;;20.43;57.70
78383;BME280;67668;52.294;4.692;2023-08-08T08:12:08;101387.03;;;20.50;56.52
78383;BME280;67668;52.294;4.692;2023-08-08T08:14:34;101396.81;;;20.57;56.30
78383;BME280;67668;52.294;4.692;2023-08-08T08:16:59;101389.81;;;20.63;55.59
78383;BME280;67668;52.294;4.692;2023-08-08T08:19:26;101383.50;;;20.71;55.73
78383;BME280;67668;52.294;4.692;2023-08-08T08:21:52;101385.00;;;20.80;56.78
78383;BME280;67668;52.294;4.692;2023-08-08T08:24:17;101386.72;;;20.87;55.25
78383;BME280;67668;52.294;4.692;2023-08-08T08:26:44;101382.47;;;20.99;57.57
78383;BME280;67668;52.294;4.692;2023-08-08T08:29:09;101387.88;;;21.06;55.95
78383;BME280;67668;52.294;4.692;2023-08-08T08:31:34;101400.00;;;21.17;56.53
78383;BME280;67668;52.294;4.692;2023-08-08T08:34:02;101392.81;;;21.24;55.74
78383;BME280;67668;52.294;4.692;2023-08-08T08:36:28;101387.25;;;21.32;55.12
78383;BME280;67668;52.294;4.692;2023-08-08T08:38:54;101389.13;;;21.38;54.90
78383;BME280;67668;52.294;4.692;2023-08-08T08:41:26;101386.69;;;21.43;54.98
78383;BME280;67668;52.294;4.692;2023-08-08T08:43:52;101383.78;;;21.44;52.90
78383;BME280;67668;52.294;4.692;2023-08-08T08:46:20;101390.88;;;21.52;53.87
78383;BME280;67668;52.294;4.692;2023-08-08T08:48:49;101394.66;;;21.57;54.96
78383;BME280;67668;52.294;4.692;2023-08-08T08:51:14;101400.25;;;21.62;54.04
78383;BME280;67668;52.294;4.692;2023-08-08T08:53:42;101397.78;;;21.67;54.45
78383;BME280;67668;52.294;4.692;2023-08-08T08:56:08;101394.72;;;21.71;54.41
78383;BME280;67668;52.294;4.692;2023-08-08T08:58:34;101398.84;;;21.73;52.61
78383;BME280;67668;52.294;4.692;2023-08-08T09:01:06;101398.06;;;21.79;53.36
78383;BME280;67668;52.294;4.692;2023-08-08T09:03:32;101401.59;;;21.86;53.06
78383;BME280;67668;52.294;4.692;2023-08-08T09:05:59;101412.78;;;21.83;51.06
78383;BME280;67668;52.294;4.692;2023-08-08T09:08:25;101417.34;;;21.83;52.46
78383;BME280;67668;52.294;4.692;2023-08-08T09:10:50;101403.28;;;21.87;53.87
78383;BME280;67668;52.294;4.692;2023-08-08T09:13:16;101404.53;;;21.91;52.54
78383;BME280;67668;52.294;4.692;2023-08-08T09:15:41;101408.28;;;21.90;53.42
78383;BME280;67668;52.294;4.692;2023-08-08T09:18:08;101408.09;;;21.98;54.61
78383;BME280;67668;52.294;4.692;2023-08-08T09:20:33;101418.28;;;22.03;52.99
78383;BME280;67668;52.294;4.692;2023-08-08T09:23:02;101417.84;;;21.99;52.80
78383;BME280;67668;52.294;4.692;2023-08-08T09:25:27;101408.91;;;21.92;51.15
78383;BME280;67668;52.294;4.692;2023-08-08T09:27:53;101406.78;;;21.88;50.13
78383;BME280;67668;52.294;4.692;2023-08-08T09:30:19;101421.78;;;21.90;50.61
78383;BME280;67668;52.294;4.692;2023-08-08T09:32:44;101420.53;;;21.93;52.21
78383;BME280;67668;52.294;4.692;2023-08-08T09:35:10;101417.19;;;21.91;50.88
78383;BME280;67668;52.294;4.692;2023-08-08T09:37:37;101414.72;;;21.96;51.08
78383;BME280;67668;52.294;4.692;2023-08-08T09:40:04;101414.13;;;22.00;51.73
78383;BME280;67668;52.294;4.692;2023-08-08T09:42:36;101417.66;;;22.07;51.52
78383;BME280;67668;52.294;4.692;2023-08-08T09:45:05;101404.00;;;22.09;51.30
78383;BME280;67668;52.294;4.692;2023-08-08T09:47:31;101417.91;;;22.12;50.75
78383;BME280;67668;52.294;4.692;2023-08-08T09:49:59;101416.47;;;22.17;51.07
78383;BME280;67668;52.294;4.692;2023-08-08T09:52:30;101415.22;;;22.19;51.15
78383;BME280;67668;52.294;4.692;2023-08-08T09:54:56;101412.72;;;22.17;50.32
78383;BME280;67668;52.294;4.692;2023-08-08T09:57:25;101419.59;;;22.27;51.93
78383;BME280;67668;52.294;4.692;2023-08-08T09:59:51;101418.97;;;22.25;50.40
78383;BME280;67668;52.294;4.692;2023-08-08T10:02:17;101425.19;;;22.32;51.93
78383;BME280;67668;52.294;4.692;2023-08-08T10:04:46;101414.41;;;22.25;49.71
78383;BME280;67668;52.294;4.692;2023-08-08T10:07:11;101421.88;;;22.23;50.31
78383;BME280;67668;52.294;4.692;2023-08-08T10:09:37;101411.50;;;22.20;50.92
78383;BME280;67668;52.294;4.692;2023-08-08T10:12:05;101419.59;;;22.27;51.06
78383;BME280;67668;52.294;4.692;2023-08-08T10:14:34;101424.38;;;22.38;52.17
78383;BME280;67668;52.294;4.692;2023-08-08T10:17:02;101419.84;;;22.45;50.62
78383;BME280;67668;52.294;4.692;2023-08-08T10:19:28;101414.03;;;22.48;50.68
78383;BME280;67668;52.294;4.692;2023-08-08T10:22:04;101412.38;;;22.47;50.47
78383;BME280;67668;52.294;4.692;2023-08-08T10:24:35;101399.31;;;22.57;51.86
78383;BME280;67668;52.294;4.692;2023-08-08T10:27:02;101407.59;;;22.62;51.90
78383;BME280;67668;52.294;4.692;2023-08-08T10:29:33;101418.25;;;22.70;50.94
78383;BME280;67668;52.294;4.692;2023-08-08T10:32:05;101409.09;;;22.71;50.17
78383;BME280;67668;52.294;4.692;2023-08-08T10:34:41;101412.44;;;22.73;49.63
78383;BME280;67668;52.294;4.692;2023-08-08T10:37:14;101403.69;;;22.78;51.62
78383;BME280;67668;52.294;4.692;2023-08-08T10:40:00;101417.41;;;22.70;50.07
78383;BME280;67668;52.294;4.692;2023-08-08T10:42:31;101417.41;;;22.76;51.59
78383;BME280;67668;52.294;4.692;2023-08-08T10:44:59;101403.28;;;22.81;50.55
78383;BME280;67668;52.294;4.692;2023-08-08T10:47:34;101418.25;;;22.90;50.59
78383;BME280;67668;52.294;4.692;2023-08-08T10:50:09;101412.84;;;22.96;50.60
78383;BME280;67668;52.294;4.692;2023-08-08T10:55:33;101413.44;;;22.98;50.79
78383;BME280;67668;52.294;4.692;2023-08-08T10:58:06;101411.16;;;23.02;49.48
78383;BME280;67668;52.294;4.692;2023-08-08T11:00:37;101406.59;;;23.02;49.94
78383;BME280;67668;52.294;4.692;2023-08-08T11:03:08;101412.59;;;23.11;51.26
78383;BME280;67668;52.294;4.692;2023-08-08T11:05:39;101407.00;;;23.06;50.31
78383;BME280;67668;52.294;4.692;2023-08-08T11:08:10;101413.84;;;23.08;49.88
78383;BME280;67668;52.294;4.692;2023-08-08T11:10:39;101413.44;;;23.11;50.20
78383;BME280;67668;52.294;4.692;2023-08-08T11:13:06;101423.63;;;23.16;50.62
78383;BME280;67668;52.294;4.692;2023-08-08T11:15:33;101424.47;;;23.16;48.59
78383;BME280;67668;52.294;4.692;2023-08-08T11:18:02;101422.56;;;23.24;51.04
78383;BME280;67668;52.294;4.692;2023-08-08T11:20:33;101414.84;;;23.27;49.93
78383;BME280;67668;52.294;4.692;2023-08-08T11:22:59;101423.19;;;23.32;50.98
78383;BME280;67668;52.294;4.692;2023-08-08T11:25:26;101419.22;;;23.35;49.63
78383;BME280;67668;52.294;4.692;2023-08-08T11:27:53;101420.06;;;23.42;50.61
78383;BME280;67668;52.294;4.692;2023-08-08T11:30:19;101419.22;;;23.35;48.54
78383;BME280;67668;52.294;4.692;2023-08-08T11:32:47;101420.66;;;23.31;48.18
78383;BME280;67668;52.294;4.692;2023-08-08T11:35:16;101420.88;;;23.36;49.40
78383;BME280;67668;52.294;4.692;2023-08-08T11:37:46;101415.25;;;23.37;49.13
78383;BME280;67668;52.294;4.692;2023-08-08T11:40:13;101414.84;;;23.40;48.63
78383;BME280;67668;52.294;4.692;2023-08-08T11:42:39;101417.13;;;23.37;48.17
78383;BME280;67668;52.294;4.692;2023-08-08T11:45:07;101430.84;;;23.35;48.22
78383;BME280;67668;52.294;4.692;2023-08-08T11:47:35;101418.19;;;23.36;46.29
78383;BME280;67668;52.294;4.692;2023-08-08T11:50:03;101425.47;;;23.42;49.30
78383;BME280;67668;52.294;4.692;2023-08-08T11:52:29;101425.25;;;23.43;48.04
78383;BME280;67668;52.294;4.692;2023-08-08T11:54:55;101421.91;;;23.48;49.57
78383;BME280;67668;52.294;4.692;2023-08-08T11:57:21;101422.31;;;23.51;49.35
78383;BME280;67668;52.294;4.692;2023-08-08T11:59:48;101432.69;;;23.54;47.92
78383;BME280;67668;52.294;4.692;2023-08-08T12:02:14;101424.41;;;23.49;47.56
78383;BME280;67668;52.294;4.692;2023-08-08T12:04:46;101421.31;;;23.46;48.91
78383;BME280;67668;52.294;4.692;2023-08-08T12:07:12;101414.03;;;23.46;48.68
78383;BME280;67668;52.294;4.692;2023-08-08T12:09:38;101423.16;;;23.39;48.31
78383;BME280;67668;52.294;4.692;2023-08-08T12:12:04;101409.88;;;23.44;49.91
78383;BME280;67668;52.294;4.692;2023-08-08T12:14:30;101416.09;;;23.38;47.87
78383;BME280;67668;52.294;4.692;2023-08-08T12:17:06;101421.50;;;23.38;50.17
78383;BME280;67668;52.294;4.692;2023-08-08T12:19:31;101413.00;;;23.41;49.23
78383;BME280;67668;52.294;4.692;2023-08-08T12:21:57;101412.38;;;23.45;49.83
78383;BME280;67668;52.294;4.692;2023-08-08T12:24:22;101410.91;;;23.49;49.86
78383;BME280;67668;52.294;4.692;2023-08-08T12:26:48;101415.25;;;23.50;47.60
78383;BME280;67668;52.294;4.692;2023-08-08T12:29:13;101418.78;;;23.51;48.90
78383;BME280;67668;52.294;4.692;2023-08-08T12:31:39;101416.34;;;23.43;46.94
78383;BME280;67668;52.294;4.692;2023-08-08T12:34:08;101422.31;;;23.38;47.52
78383;BME280;67668;52.294;4.692;2023-08-08T12:36:41;101424.00;;;23.39;47.37
78383;BME280;67668;52.294;4.692;2023-08-08T12:39:08;101422.75;;;23.42;48.77
78383;BME280;67668;52.294;4.692;2023-08-08T12:41:36;101427.94;;;23.43;48.16
78383;BME280;67668;52.294;4.692;2023-08-08T12:44:01;101425.88;;;23.45;48.65
78383;BME280;67668;52.294;4.692;2023-08-08T12:46:28;101413.81;;;23.48;48.10
78383;BME280;67668;52.294;4.692;2023-08-08T12:48:54;101422.91;;;23.60;49.62
78383;BME280;67668;52.294;4.692;2023-08-08T12:51:19;101428.94;;;23.68;48.14
78383;BME280;67668;52.294;4.692;2023-08-08T12:53:45;101422.69;;;23.68;48.20
78383;BME280;67668;52.294;4.692;2023-08-08T12:56:11;101425.19;;;23.70;47.22